Airport View

Enter AWOS ICAO identifier for current METAR.

ex. KFNL

KFRG 212253Z AUTO 20006KT 10SM CLR 22/16 A3016 RMK AO2 SLP213 T02170156

21 Sep 2019 23:38

Phone: 631-752-8129

Other Area AWOS: KISP - KJFK - KLGA - KHPN

TAF AMD KISP 211938Z 2120/2218 18009KT P6SM SCT250 FM220100 VRB02KT P6SM SKC FM221200 22006KT P6SM SKC FM221700 20012G16KT P6SM FEW040 FEW100